createdAt,value
2023-03-21T00:01:12.381Z,1009.7
2023-03-21T00:02:27.708Z,1009.7
2023-03-21T00:03:42.000Z,1009.7
2023-03-21T00:04:59.296Z,1009.7
2023-03-21T00:06:15.000Z,1009.7
2023-03-21T00:07:31.000Z,1009.7
2023-03-21T00:08:47.000Z,1009.6
2023-03-21T00:10:04.000Z,1009.7
2023-03-21T00:11:20.000Z,1009.6
2023-03-21T00:12:36.000Z,1009.7
2023-03-21T00:13:53.000Z,1009.7
2023-03-21T00:15:09.000Z,1009.7
2023-03-21T00:16:25.904Z,1009.7
2023-03-21T00:17:41.000Z,1009.7
2023-03-21T00:18:58.000Z,1009.6
2023-03-21T00:20:13.000Z,1009.6
2023-03-21T00:21:29.000Z,1009.5
2023-03-21T00:22:46.000Z,1009.6
2023-03-21T00:24:02.000Z,1009.6
2023-03-21T00:25:18.000Z,1009.5
2023-03-21T00:26:34.000Z,1009.5
2023-03-21T00:27:51.000Z,1009.5
2023-03-21T00:29:06.000Z,1009.5
2023-03-21T00:30:21.000Z,1009.5
2023-03-21T00:31:37.000Z,1009.5
2023-03-21T00:32:52.000Z,1009.5
2023-03-21T00:34:08.000Z,1009.5
2023-03-21T00:35:25.000Z,1009.5
2023-03-21T00:36:41.000Z,1009.5
2023-03-21T00:37:57.000Z,1009.3
2023-03-21T00:39:13.000Z,1009.4
2023-03-21T00:40:30.000Z,1009.4
2023-03-21T00:41:46.000Z,1009.4
2023-03-21T00:43:03.020Z,1009.4
2023-03-21T00:44:19.000Z,1009.3
2023-03-21T00:45:35.000Z,1009.4
2023-03-21T00:46:51.000Z,1009.4
2023-03-21T00:48:07.000Z,1009.4
2023-03-21T00:49:23.000Z,1009.3
2023-03-21T00:50:39.000Z,1009.3
2023-03-21T00:51:56.031Z,1009.3
2023-03-21T00:53:12.000Z,1009.3
2023-03-21T00:54:28.639Z,1009.3
2023-03-21T00:55:44.000Z,1009.3
2023-03-21T00:57:00.000Z,1009.3
2023-03-21T00:58:16.000Z,1009.3
2023-03-21T00:59:31.000Z,1009.3
2023-03-21T01:00:46.000Z,1009.2
2023-03-21T01:02:02.000Z,1009.3
2023-03-21T01:03:18.000Z,1009.3
2023-03-21T01:04:34.000Z,1009.3
2023-03-21T01:05:51.000Z,1009.3
2023-03-21T01:07:07.000Z,1009.3
2023-03-21T01:08:23.000Z,1009.2
2023-03-21T01:09:39.000Z,1009.2
2023-03-21T01:10:56.000Z,1009.2
2023-03-21T01:12:11.000Z,1009.2
2023-03-21T01:13:27.000Z,1009.2
2023-03-21T01:14:44.000Z,1009.1
2023-03-21T01:16:00.000Z,1009.2
2023-03-21T01:17:16.000Z,1009.2
2023-03-21T01:18:32.000Z,1009.2
2023-03-21T01:19:49.000Z,1009.2
2023-03-21T01:21:05.768Z,1009.2
2023-03-21T01:22:22.042Z,1009.1
2023-03-21T01:23:38.000Z,1009.1
2023-03-21T01:24:54.000Z,1009.1
2023-03-21T01:26:10.000Z,1009.1
2023-03-21T01:27:25.000Z,1009.1
2023-03-21T01:28:41.000Z,1009.1
2023-03-21T01:29:56.000Z,1009.1
2023-03-21T01:31:11.000Z,1009.1
2023-03-21T01:32:28.000Z,1009.1
2023-03-21T01:33:44.000Z,1009.1
2023-03-21T01:35:00.000Z,1009.1
2023-03-21T01:36:17.000Z,1009.1
2023-03-21T01:37:33.000Z,1009.1
2023-03-21T01:38:49.000Z,1009
2023-03-21T01:40:05.000Z,1009
2023-03-21T01:41:22.000Z,1009
2023-03-21T01:42:38.000Z,1009
2023-03-21T01:43:54.000Z,1009
2023-03-21T01:45:11.000Z,1009
2023-03-21T01:46:27.000Z,1008.9
2023-03-21T01:47:42.000Z,1008.9
2023-03-21T01:48:58.000Z,1008.9
2023-03-21T01:50:15.000Z,1008.9
2023-03-21T01:51:31.000Z,1008.9
2023-03-21T01:52:47.000Z,1008.9
2023-03-21T01:54:04.000Z,1008.9
2023-03-21T01:55:20.000Z,1008.8
2023-03-21T01:56:35.000Z,1008.9
2023-03-21T01:57:51.000Z,1008.8
2023-03-21T01:59:07.531Z,1008.9
2023-03-21T02:00:23.000Z,1008.8
2023-03-21T02:01:38.000Z,1008.8
2023-03-21T02:02:54.000Z,1008.8
2023-03-21T02:04:10.000Z,1008.9
2023-03-21T02:05:27.006Z,1008.8
2023-03-21T02:06:43.000Z,1008.8
2023-03-21T02:07:59.000Z,1008.8
2023-03-21T02:09:15.000Z,1008.8
2023-03-21T02:10:31.000Z,1008.8
2023-03-21T02:11:48.000Z,1008.8
2023-03-21T02:13:04.000Z,1008.7
2023-03-21T02:14:20.000Z,1008.7
2023-03-21T02:15:37.000Z,1008.7
2023-03-21T02:16:53.000Z,1008.6
2023-03-21T02:18:09.000Z,1008.6
2023-03-21T02:19:24.000Z,1008.6
2023-03-21T02:20:41.465Z,1008.6
2023-03-21T02:21:57.000Z,1008.6
2023-03-21T02:23:13.000Z,1008.6
2023-03-21T02:24:30.000Z,1008.6
2023-03-21T02:25:46.000Z,1008.6
2023-03-21T02:27:02.000Z,1008.5
2023-03-21T02:28:17.000Z,1008.6
2023-03-21T02:29:33.000Z,1008.6
2023-03-21T02:30:48.000Z,1008.6
2023-03-21T02:32:03.000Z,1008.5
2023-03-21T02:33:20.000Z,1008.6
2023-03-21T02:34:36.000Z,1008.6
2023-03-21T02:35:52.000Z,1008.5
2023-03-21T02:37:09.273Z,1008.5
2023-03-21T02:38:25.000Z,1008.5
2023-03-21T02:39:41.000Z,1008.5
2023-03-21T02:40:58.172Z,1008.5
2023-03-21T02:42:14.000Z,1008.5
2023-03-21T02:43:30.000Z,1008.6
2023-03-21T02:44:46.000Z,1008.5
2023-03-21T02:46:03.000Z,1008.5
2023-03-21T02:47:19.000Z,1008.5
2023-03-21T02:48:34.000Z,1008.5
2023-03-21T02:49:50.000Z,1008.6
2023-03-21T02:51:07.000Z,1008.5
2023-03-21T02:52:23.000Z,1008.5
2023-03-21T02:53:39.000Z,1008.6
2023-03-21T02:54:56.000Z,1008.5
2023-03-21T02:56:12.000Z,1008.5
2023-03-21T02:57:27.000Z,1008.6
2023-03-21T02:58:42.000Z,1008.5
2023-03-21T02:59:59.000Z,1008.6
2023-03-21T03:01:15.000Z,1008.6
2023-03-21T03:02:30.000Z,1008.5
2023-03-21T03:03:46.000Z,1008.6
2023-03-21T03:05:02.000Z,1008.5
2023-03-21T03:06:18.000Z,1008.5
2023-03-21T03:07:35.000Z,1008.5
2023-03-21T03:08:51.000Z,1008.5
2023-03-21T03:10:07.000Z,1008.5
2023-03-21T03:11:23.000Z,1008.4
2023-03-21T03:12:40.000Z,1008.3
2023-03-21T03:13:56.000Z,1008.4
2023-03-21T03:15:13.013Z,1008.4
2023-03-21T03:16:29.000Z,1008.4
2023-03-21T03:17:45.000Z,1008.4
2023-03-21T03:19:01.000Z,1008.4
2023-03-21T03:20:16.000Z,1008.4
2023-03-21T03:21:33.000Z,1008.4
2023-03-21T03:22:49.000Z,1008.4
2023-03-21T03:24:05.000Z,1008.4
2023-03-21T03:25:22.000Z,1008.4
2023-03-21T03:26:38.000Z,1008.4
2023-03-21T03:27:54.914Z,1008.4
2023-03-21T03:29:09.000Z,1008.4
2023-03-21T03:30:25.000Z,1008.3
2023-03-21T03:31:40.000Z,1008.3
2023-03-21T03:32:55.000Z,1008.3
2023-03-21T03:34:12.000Z,1008.4
2023-03-21T03:35:28.000Z,1008.3
2023-03-21T03:36:44.000Z,1008.3
2023-03-21T03:38:01.000Z,1008.3
2023-03-21T03:39:17.000Z,1008.2
2023-03-21T03:40:33.000Z,1008.3
2023-03-21T03:41:49.000Z,1008.3
2023-03-21T03:43:06.000Z,1008.3
2023-03-21T03:44:22.000Z,1008.3
2023-03-21T03:45:38.000Z,1008.3
2023-03-21T03:46:55.000Z,1008.3
2023-03-21T03:48:11.000Z,1008.3
2023-03-21T03:49:26.000Z,1008.3
2023-03-21T03:50:42.000Z,1008.3
2023-03-21T03:51:59.000Z,1008.3
2023-03-21T03:53:15.765Z,1008.2
2023-03-21T03:54:31.000Z,1008.3
2023-03-21T03:55:48.000Z,1008.3
2023-03-21T03:57:04.000Z,1008.2
2023-03-21T03:58:19.000Z,1008.2
2023-03-21T03:59:34.000Z,1008.2
2023-03-21T04:00:51.000Z,1008.2
2023-03-21T04:02:06.000Z,1008.2
2023-03-21T04:03:21.000Z,1008.2
2023-03-21T04:04:38.000Z,1008.2
2023-03-21T04:05:54.000Z,1008.2
2023-03-21T04:07:10.000Z,1008.2
2023-03-21T04:08:27.000Z,1008.2
2023-03-21T04:09:43.000Z,1008.2
2023-03-21T04:10:59.000Z,1008.2
2023-03-21T04:12:15.000Z,1008.2
2023-03-21T04:13:32.000Z,1008.2
2023-03-21T04:14:48.000Z,1008.1
2023-03-21T04:16:04.000Z,1008.1
2023-03-21T04:17:21.000Z,1008.2
2023-03-21T04:18:37.000Z,1008.1
2023-03-21T04:19:52.000Z,1008.1
2023-03-21T04:21:08.000Z,1008.1
2023-03-21T04:22:25.000Z,1008
2023-03-21T04:23:41.000Z,1008.1
2023-03-21T04:24:57.000Z,1008
2023-03-21T04:26:14.000Z,1008
2023-03-21T04:27:30.000Z,1008.1
2023-03-21T04:28:45.000Z,1008.1
2023-03-21T04:30:00.000Z,1008.1
2023-03-21T04:31:17.000Z,1008
2023-03-21T04:32:33.000Z,1008.1
2023-03-21T04:33:48.000Z,1008.1
2023-03-21T04:35:04.000Z,1008
2023-03-21T04:36:20.000Z,1008
2023-03-21T04:37:36.000Z,1008
2023-03-21T04:38:53.000Z,1008
2023-03-21T04:40:09.000Z,1008
2023-03-21T04:41:25.000Z,1008
2023-03-21T04:42:41.000Z,1007.9
2023-03-21T04:43:58.425Z,1008
2023-03-21T04:45:14.000Z,1007.9
2023-03-21T04:46:30.000Z,1007.9
2023-03-21T04:47:47.312Z,1007.9
2023-03-21T04:49:03.000Z,1008
2023-03-21T04:50:19.000Z,1007.9
2023-03-21T04:51:34.000Z,1007.9
2023-03-21T04:52:51.000Z,1007.9
2023-03-21T04:55:23.000Z,1007.9
2023-03-21T04:56:40.277Z,1007.9
2023-03-21T04:57:56.000Z,1007.9
2023-03-21T04:59:12.000Z,1007.9
2023-03-21T05:00:27.866Z,1007.9
2023-03-21T05:01:43.000Z,1007.9
2023-03-21T05:02:58.000Z,1007.9
2023-03-21T05:04:13.000Z,1007.9
2023-03-21T05:05:30.000Z,1007.9
2023-03-21T05:06:46.000Z,1007.9
2023-03-21T05:08:02.000Z,1007.9
2023-03-21T05:09:18.000Z,1007.9
2023-03-21T05:10:35.000Z,1007.9
2023-03-21T05:11:51.000Z,1007.9
2023-03-21T05:13:07.000Z,1007.9
2023-03-21T05:14:23.000Z,1007.9
2023-03-21T05:15:40.000Z,1007.9
2023-03-21T05:16:56.000Z,1007.9
2023-03-21T05:18:12.000Z,1007.9
2023-03-21T05:19:28.000Z,1007.8
2023-03-21T05:20:44.000Z,1007.9
2023-03-21T05:22:00.509Z,1007.8
2023-03-21T05:23:16.000Z,1007.8
2023-03-21T05:24:32.956Z,1007.8
2023-03-21T05:25:48.000Z,1007.8
2023-03-21T05:27:04.000Z,1007.8
2023-03-21T05:28:20.000Z,1007.8
2023-03-21T05:29:35.000Z,1007.8
2023-03-21T05:30:50.000Z,1007.8
2023-03-21T05:32:07.000Z,1007.8
2023-03-21T05:33:23.000Z,1007.8
2023-03-21T05:34:38.933Z,1007.8
2023-03-21T05:35:53.000Z,1007.8
2023-03-21T05:37:10.000Z,1007.8
2023-03-21T05:38:26.000Z,1007.9
2023-03-21T05:39:42.000Z,1007.9
2023-03-21T05:40:58.000Z,1007.9
2023-03-21T05:42:15.000Z,1007.9
2023-03-21T05:43:31.000Z,1007.9
2023-03-21T05:44:47.000Z,1007.9
2023-03-21T05:46:03.000Z,1007.9
2023-03-21T05:47:20.000Z,1007.9
2023-03-21T05:48:36.000Z,1007.9
2023-03-21T05:49:52.000Z,1007.9
2023-03-21T05:51:08.000Z,1007.9
2023-03-21T05:52:23.000Z,1007.9
2023-03-21T05:53:40.000Z,1007.8
2023-03-21T05:54:56.000Z,1008
2023-03-21T05:56:12.000Z,1008
2023-03-21T05:57:28.000Z,1008
2023-03-21T05:58:45.000Z,1008
2023-03-21T06:00:01.637Z,1007.9
2023-03-21T06:01:16.000Z,1007.9
2023-03-21T06:02:31.000Z,1007.9
2023-03-21T06:03:48.000Z,1007.9
2023-03-21T06:05:04.000Z,1008
2023-03-21T06:06:20.000Z,1008
2023-03-21T06:07:36.000Z,1008
2023-03-21T06:08:53.000Z,1007.9
2023-03-21T06:10:09.535Z,1007.9
2023-03-21T06:11:25.769Z,1007.9
2023-03-21T06:12:42.011Z,1008
2023-03-21T06:13:57.000Z,1008
2023-03-21T06:15:14.000Z,1008
2023-03-21T06:16:30.000Z,1008
2023-03-21T06:17:46.000Z,1008
2023-03-21T06:19:01.000Z,1008
2023-03-21T06:20:18.000Z,1008
2023-03-21T06:21:34.000Z,1008.1
2023-03-21T06:22:50.000Z,1008
2023-03-21T06:24:06.000Z,1008
2023-03-21T06:25:23.365Z,1008
2023-03-21T06:26:39.582Z,1008
2023-03-21T06:27:54.000Z,1008
2023-03-21T06:29:09.000Z,1008
2023-03-21T06:30:25.000Z,1008
2023-03-21T06:31:40.598Z,1008
2023-03-21T06:32:56.000Z,1008
2023-03-21T06:34:12.000Z,1008
2023-03-21T06:35:28.338Z,1008
2023-03-21T06:36:43.000Z,1008
2023-03-21T06:37:59.816Z,1008
2023-03-21T06:39:15.000Z,1008.1
2023-03-21T06:40:32.000Z,1008.1
2023-03-21T06:41:48.000Z,1008
2023-03-21T06:43:04.000Z,1008
2023-03-21T06:44:20.000Z,1008.1
2023-03-21T06:45:36.000Z,1008
2023-03-21T06:46:53.000Z,1008
2023-03-21T06:48:09.000Z,1008
2023-03-21T06:49:25.000Z,1008
2023-03-21T06:50:42.152Z,1008
2023-03-21T06:51:58.394Z,1008
2023-03-21T06:53:13.632Z,1008
2023-03-21T06:54:29.875Z,1008
2023-03-21T06:55:45.000Z,1008
2023-03-21T06:57:02.000Z,1008
2023-03-21T06:58:18.562Z,1008
2023-03-21T06:59:34.000Z,1008
2023-03-21T07:00:50.000Z,1008
2023-03-21T07:02:06.000Z,1008
2023-03-21T07:03:21.545Z,1008
2023-03-21T07:04:37.000Z,1008
2023-03-21T07:05:52.000Z,1008
2023-03-21T07:07:08.298Z,1007.9
2023-03-21T07:08:24.000Z,1007.9
2023-03-21T07:09:40.000Z,1008
2023-03-21T07:10:56.000Z,1008
2023-03-21T07:12:12.000Z,1008
2023-03-21T07:13:29.000Z,1008
2023-03-21T07:14:45.000Z,1008
2023-03-21T07:16:01.922Z,1008
2023-03-21T07:17:17.000Z,1008
2023-03-21T07:18:34.000Z,1008
2023-03-21T07:19:50.000Z,1008
2023-03-21T07:21:06.000Z,1008
2023-03-21T07:22:22.000Z,1008
2023-03-21T07:23:38.323Z,1008
2023-03-21T07:24:54.000Z,1008
2023-03-21T07:26:10.000Z,1008
2023-03-21T07:27:26.000Z,1008.1
2023-03-21T07:28:43.000Z,1008.1
2023-03-21T07:29:59.000Z,1008.1
2023-03-21T07:31:15.000Z,1008.1
2023-03-21T07:32:30.999Z,1008.1
2023-03-21T07:33:46.000Z,1008.1
2023-03-21T07:35:02.000Z,1008.1
2023-03-21T07:36:17.000Z,1008.1
2023-03-21T07:37:32.000Z,1008.1
2023-03-21T07:38:49.229Z,1008.1
2023-03-21T07:40:05.000Z,1008.1
2023-03-21T07:42:37.000Z,1008.1
2023-03-21T07:43:54.161Z,1008.1
2023-03-21T07:45:10.000Z,1008.1
2023-03-21T07:46:26.000Z,1008
2023-03-21T07:47:42.000Z,1008
2023-03-21T07:48:58.000Z,1008.1
2023-03-21T07:50:15.000Z,1008.1
2023-03-21T07:51:31.000Z,1008.1
2023-03-21T07:52:47.000Z,1008
2023-03-21T07:54:03.045Z,1008
2023-03-21T07:55:19.000Z,1008
2023-03-21T07:56:35.000Z,1008
2023-03-21T07:57:51.000Z,1008
2023-03-21T07:59:07.000Z,1008
2023-03-21T08:00:23.000Z,1008
2023-03-21T08:01:40.000Z,1008
2023-03-21T08:02:56.000Z,1008
2023-03-21T08:04:11.000Z,1008
2023-03-21T08:05:28.166Z,1008
2023-03-21T08:06:43.000Z,1008
2023-03-21T08:07:59.000Z,1008
2023-03-21T08:09:14.000Z,1008
2023-03-21T08:10:29.000Z,1008
2023-03-21T08:11:46.000Z,1008
2023-03-21T08:13:02.625Z,1008
2023-03-21T08:14:18.000Z,1008.1
2023-03-21T08:15:35.088Z,1008
2023-03-21T08:16:51.000Z,1008
2023-03-21T08:18:07.000Z,1008
2023-03-21T08:19:23.786Z,1008
2023-03-21T08:20:39.000Z,1008
2023-03-21T08:21:56.000Z,1008
2023-03-21T08:23:12.485Z,1008
2023-03-21T08:24:28.000Z,1008
2023-03-21T08:25:44.973Z,1008
2023-03-21T08:26:59.000Z,1008
2023-03-21T08:28:16.000Z,1008
2023-03-21T08:29:32.000Z,1008.1
2023-03-21T08:30:48.000Z,1008.1
2023-03-21T08:32:05.127Z,1008
2023-03-21T08:33:21.363Z,1008
2023-03-21T08:34:37.000Z,1008
2023-03-21T08:35:53.000Z,1008
2023-03-21T08:37:09.000Z,1008
2023-03-21T08:38:26.000Z,1008
2023-03-21T08:39:42.000Z,1007.9
2023-03-21T08:40:58.000Z,1007.9
2023-03-21T08:42:15.026Z,1008
2023-03-21T08:43:30.000Z,1007.9
2023-03-21T08:44:46.000Z,1008
2023-03-21T08:46:02.000Z,1008
2023-03-21T08:47:18.964Z,1008
2023-03-21T08:48:34.000Z,1008
2023-03-21T08:49:51.000Z,1007.9
2023-03-21T08:51:07.000Z,1008
2023-03-21T08:53:40.130Z,1007.9
2023-03-21T08:54:56.361Z,1007.9
2023-03-21T08:56:12.000Z,1008
2023-03-21T08:57:28.838Z,1007.9
2023-03-21T08:58:44.000Z,1008
2023-03-21T09:00:00.000Z,1007.9
2023-03-21T09:01:15.000Z,1008
2023-03-21T09:02:30.000Z,1007.9
2023-03-21T09:03:45.000Z,1007.9
2023-03-21T09:05:02.000Z,1007.9
2023-03-21T09:06:18.000Z,1007.9
2023-03-21T09:07:34.765Z,1007.9
2023-03-21T09:08:50.000Z,1007.9
2023-03-21T09:11:23.000Z,1007.8
2023-03-21T09:12:39.000Z,1007.9
2023-03-21T09:13:55.000Z,1007.9
2023-03-21T09:15:11.000Z,1007.8
2023-03-21T09:16:28.407Z,1007.9
2023-03-21T09:17:44.000Z,1007.9
2023-03-21T09:19:00.000Z,1007.8
2023-03-21T09:20:16.133Z,1007.8
2023-03-21T09:21:32.364Z,1007.8
2023-03-21T09:22:48.000Z,1007.9
2023-03-21T09:24:04.000Z,1007.9
2023-03-21T09:25:20.000Z,1007.8
2023-03-21T09:26:37.000Z,1007.7
2023-03-21T09:27:53.000Z,1007.7
2023-03-21T09:29:09.000Z,1007.8
2023-03-21T09:30:25.000Z,1007.8
2023-03-21T09:31:41.000Z,1007.8
2023-03-21T09:32:57.000Z,1007.7
2023-03-21T09:34:12.000Z,1007.7
2023-03-21T09:35:28.985Z,1007.6
2023-03-21T09:36:45.192Z,1007.7
2023-03-21T09:38:01.000Z,1007.8
2023-03-21T09:39:17.680Z,1007.8
2023-03-21T09:40:32.000Z,1007.8
2023-03-21T09:41:47.000Z,1007.8
2023-03-21T09:43:04.000Z,1007.8
2023-03-21T09:44:20.000Z,1007.7
2023-03-21T09:45:36.000Z,1007.7
2023-03-21T09:46:52.000Z,1007.7
2023-03-21T09:49:25.000Z,1007.8
2023-03-21T09:50:41.812Z,1007.8
2023-03-21T09:51:57.000Z,1007.7
2023-03-21T09:53:14.000Z,1007.8
2023-03-21T09:54:30.000Z,1007.8
2023-03-21T09:55:46.768Z,1007.8
2023-03-21T09:57:02.000Z,1007.8
2023-03-21T09:58:18.234Z,1007.7
2023-03-21T09:59:34.000Z,1007.8
2023-03-21T10:00:50.000Z,1007.8
2023-03-21T10:02:06.000Z,1007.7
2023-03-21T10:03:23.171Z,1007.8
2023-03-21T10:04:39.386Z,1007.8
2023-03-21T10:05:55.000Z,1007.8
2023-03-21T10:07:11.000Z,1007.8
2023-03-21T10:08:27.000Z,1007.7
2023-03-21T10:09:44.337Z,1007.7
2023-03-21T10:11:00.000Z,1007.7
2023-03-21T10:12:16.000Z,1007.7
2023-03-21T10:13:32.000Z,1007.7
2023-03-21T10:14:48.302Z,1007.7
2023-03-21T10:16:04.000Z,1007.7
2023-03-21T10:17:20.740Z,1007.7
2023-03-21T10:18:36.000Z,1007.6
2023-03-21T10:19:52.000Z,1007.7
2023-03-21T10:21:09.000Z,1007.6
2023-03-21T10:22:25.000Z,1007.7
2023-03-21T10:23:41.000Z,1007.6
2023-03-21T10:24:58.159Z,1007.7
2023-03-21T10:27:30.000Z,1007.6
2023-03-21T10:28:46.000Z,1007.5
2023-03-21T10:30:02.000Z,1007.6
2023-03-21T10:31:18.000Z,1007.6
2023-03-21T10:32:34.000Z,1007.7
2023-03-21T10:33:50.000Z,1007.6
2023-03-21T10:35:06.000Z,1007.6
2023-03-21T10:36:23.000Z,1007.6
2023-03-21T10:37:39.000Z,1007.6
2023-03-21T10:38:54.000Z,1007.6
2023-03-21T10:40:09.000Z,1007.6
2023-03-21T10:41:25.000Z,1007.6
2023-03-21T10:42:41.000Z,1007.6
2023-03-21T10:43:56.000Z,1007.5
2023-03-21T10:45:12.000Z,1007.5
2023-03-21T10:46:28.000Z,1007.5
2023-03-21T10:47:45.000Z,1007.5
2023-03-21T10:49:01.000Z,1007.5
2023-03-21T10:50:17.000Z,1007.5
2023-03-21T10:51:34.139Z,1007.4
2023-03-21T10:52:50.000Z,1007.5
2023-03-21T10:54:06.000Z,1007.5
2023-03-21T10:55:22.000Z,1007.4
2023-03-21T10:56:38.000Z,1007.4
2023-03-21T10:57:55.000Z,1007.4
2023-03-21T10:59:11.000Z,1007.4
2023-03-21T11:00:26.000Z,1007.4
2023-03-21T11:01:42.000Z,1007.3
2023-03-21T11:02:59.000Z,1007.3
2023-03-21T11:05:31.000Z,1007.3
2023-03-21T11:06:47.000Z,1007.2
2023-03-21T11:08:04.186Z,1007.2
2023-03-21T11:09:20.000Z,1007.3
2023-03-21T11:10:36.000Z,1007.3
2023-03-21T11:11:52.000Z,1007.3
2023-03-21T11:13:08.000Z,1007.3
2023-03-21T11:14:25.000Z,1007.1
2023-03-21T11:15:41.000Z,1007.2
2023-03-21T11:16:56.000Z,1007.2
2023-03-21T11:18:12.000Z,1007.2
2023-03-21T11:19:29.000Z,1007.2
2023-03-21T11:20:45.000Z,1007.2
2023-03-21T11:22:01.000Z,1007.1
2023-03-21T11:23:17.000Z,1007.1
2023-03-21T11:24:34.000Z,1007.2
2023-03-21T11:25:50.000Z,1007.1
2023-03-21T11:27:06.000Z,1007.2
2023-03-21T11:28:22.000Z,1007.1
2023-03-21T11:29:38.000Z,1007.2
2023-03-21T11:30:55.000Z,1007.1
2023-03-21T11:32:11.000Z,1007.1
2023-03-21T11:33:26.000Z,1007.1
2023-03-21T11:34:42.000Z,1007.1
2023-03-21T11:35:59.000Z,1007
2023-03-21T11:37:15.000Z,1007
2023-03-21T11:38:31.000Z,1007
2023-03-21T11:39:47.000Z,1007
2023-03-21T11:41:04.000Z,1007
2023-03-21T11:42:20.546Z,1007
2023-03-21T11:43:36.000Z,1006.9
2023-03-21T11:44:52.000Z,1006.9
2023-03-21T11:46:08.000Z,1006.9
2023-03-21T11:47:25.000Z,1006.9
2023-03-21T11:48:41.000Z,1007
2023-03-21T11:49:56.000Z,1006.9
2023-03-21T11:51:13.197Z,1006.9
2023-03-21T11:52:29.000Z,1006.9
2023-03-21T11:53:45.000Z,1007
2023-03-21T11:56:17.000Z,1006.9
2023-03-21T11:57:34.000Z,1006.8
2023-03-21T11:58:50.000Z,1006.7
2023-03-21T12:00:06.000Z,1006.8
2023-03-21T12:01:22.000Z,1006.7
2023-03-21T12:02:39.000Z,1006.7
2023-03-21T12:03:55.000Z,1006.7
2023-03-21T12:05:11.000Z,1006.7
2023-03-21T12:06:26.000Z,1006.7
2023-03-21T12:07:42.000Z,1006.7
2023-03-21T12:08:59.466Z,1006.6
2023-03-21T12:10:15.000Z,1006.6
2023-03-21T12:11:31.000Z,1006.6
2023-03-21T12:12:48.159Z,1006.6
2023-03-21T12:14:04.000Z,1006.6
2023-03-21T12:15:20.000Z,1006.6
2023-03-21T12:16:36.000Z,1006.5
2023-03-21T12:17:52.000Z,1006.5
2023-03-21T12:19:09.000Z,1006.5
2023-03-21T12:20:25.000Z,1006.5
2023-03-21T12:21:41.790Z,1006.4
2023-03-21T12:22:56.000Z,1006.4
2023-03-21T12:24:13.000Z,1006.3
2023-03-21T12:25:29.000Z,1006.2
2023-03-21T12:26:45.000Z,1006.2
2023-03-21T12:28:01.000Z,1006.2
2023-03-21T12:29:17.000Z,1006.3
2023-03-21T12:30:34.000Z,1006.3
2023-03-21T12:31:50.000Z,1006.3
2023-03-21T12:33:06.911Z,1006.3
2023-03-21T12:35:39.000Z,1006.3
2023-03-21T12:36:55.000Z,1006.2
2023-03-21T12:38:11.000Z,1006.1
2023-03-21T12:39:26.000Z,1006.2
2023-03-21T12:40:43.000Z,1006.2
2023-03-21T12:41:59.000Z,1006.2
2023-03-21T12:43:15.000Z,1006.2
2023-03-21T12:44:31.000Z,1006.1
2023-03-21T12:45:48.000Z,1006.1
2023-03-21T12:47:04.000Z,1006.1
2023-03-21T12:48:20.000Z,1006.1
2023-03-21T12:49:36.000Z,1006.1
2023-03-21T12:50:52.000Z,1006.1
2023-03-21T12:52:09.000Z,1006.1
2023-03-21T12:53:25.000Z,1006.1
2023-03-21T12:54:41.000Z,1006
2023-03-21T12:55:57.161Z,1006
2023-03-21T12:57:13.000Z,1006
2023-03-21T12:58:29.000Z,1006
2023-03-21T12:59:45.000Z,1006
2023-03-21T13:01:01.000Z,1006
2023-03-21T13:02:18.000Z,1006
2023-03-21T13:03:34.000Z,1006
2023-03-21T13:04:50.000Z,1006
2023-03-21T13:06:06.000Z,1006
2023-03-21T13:07:22.000Z,1005.9
2023-03-21T13:08:39.000Z,1006
2023-03-21T13:09:55.000Z,1005.9
2023-03-21T13:11:11.000Z,1005.9
2023-03-21T13:12:27.000Z,1005.9
2023-03-21T13:13:43.000Z,1005.8
2023-03-21T13:14:59.000Z,1005.9
2023-03-21T13:16:15.000Z,1005.8
2023-03-21T13:17:31.000Z,1005.8
2023-03-21T13:18:48.000Z,1005.8
2023-03-21T13:20:04.000Z,1005.8
2023-03-21T13:21:20.000Z,1005.7
2023-03-21T13:22:36.000Z,1005.7
2023-03-21T13:23:53.303Z,1005.7
2023-03-21T13:25:09.000Z,1005.6
2023-03-21T13:26:25.000Z,1005.6
2023-03-21T13:27:41.000Z,1005.6
2023-03-21T13:28:57.000Z,1005.6
2023-03-21T13:30:13.000Z,1005.6
2023-03-21T13:31:29.000Z,1005.6
2023-03-21T13:32:45.000Z,1005.6
2023-03-21T13:34:01.000Z,1005.6
2023-03-21T13:35:18.000Z,1005.6
2023-03-21T13:36:34.000Z,1005.6
2023-03-21T13:37:50.000Z,1005.5
2023-03-21T13:39:06.000Z,1005.4
2023-03-21T13:40:23.000Z,1005.4
2023-03-21T13:41:39.000Z,1005.4
2023-03-21T13:42:55.000Z,1005.3
2023-03-21T13:44:10.000Z,1005.3
2023-03-21T13:45:26.000Z,1005.3
2023-03-21T13:46:42.000Z,1005.3
2023-03-21T13:47:58.000Z,1005.3
2023-03-21T13:49:13.000Z,1005.3
2023-03-21T13:50:30.000Z,1005.4
2023-03-21T13:51:45.000Z,1005.3
2023-03-21T13:53:01.000Z,1005.3
2023-03-21T13:54:17.000Z,1005.3
2023-03-21T13:55:33.000Z,1005.3
2023-03-21T13:56:49.000Z,1005.3
2023-03-21T13:58:05.000Z,1005.3
2023-03-21T13:59:21.000Z,1005.2
2023-03-21T14:00:37.000Z,1005.1
2023-03-21T14:01:54.417Z,1005.1
2023-03-21T14:03:10.000Z,1005.1
2023-03-21T14:04:26.000Z,1005.1
2023-03-21T14:05:42.000Z,1005.1
2023-03-21T14:06:59.000Z,1005
2023-03-21T14:08:15.000Z,1005
2023-03-21T14:09:31.000Z,1005
2023-03-21T14:10:47.000Z,1004.9
2023-03-21T14:12:04.000Z,1005
2023-03-21T14:13:19.000Z,1004.9
2023-03-21T14:14:35.000Z,1005
2023-03-21T14:15:51.000Z,1004.9
2023-03-21T14:17:07.000Z,1005.1
2023-03-21T14:18:24.000Z,1004.9
2023-03-21T14:19:40.000Z,1004.9
2023-03-21T14:20:56.000Z,1004.9
2023-03-21T14:22:13.166Z,1004.9
2023-03-21T14:23:29.000Z,1004.9
2023-03-21T14:24:45.000Z,1004.8
2023-03-21T14:26:01.000Z,1004.9
2023-03-21T14:27:17.000Z,1004.9
2023-03-21T14:28:34.000Z,1004.9
2023-03-21T14:29:49.000Z,1004.8
2023-03-21T14:31:05.844Z,1004.7
2023-03-21T14:32:21.000Z,1004.7
2023-03-21T14:33:38.266Z,1004.7
2023-03-21T14:34:54.000Z,1004.7
2023-03-21T14:36:10.000Z,1004.7
2023-03-21T14:37:26.000Z,1004.7
2023-03-21T14:38:42.000Z,1004.7
2023-03-21T14:39:59.442Z,1004.7
2023-03-21T14:41:15.655Z,1004.7
2023-03-21T14:42:31.921Z,1004.6
2023-03-21T14:43:47.000Z,1004.6
2023-03-21T14:45:04.000Z,1004.6
2023-03-21T14:46:19.000Z,1004.7
2023-03-21T14:47:35.000Z,1004.7
2023-03-21T14:48:51.000Z,1004.7
2023-03-21T14:50:08.000Z,1004.7
2023-03-21T14:51:24.000Z,1004.7
2023-03-21T14:53:56.000Z,1004.7
2023-03-21T14:55:13.000Z,1004.7
2023-03-21T14:56:29.000Z,1004.7
2023-03-21T14:57:45.000Z,1004.7
2023-03-21T14:59:01.000Z,1004.8
2023-03-21T15:00:17.000Z,1004.7
2023-03-21T15:01:34.000Z,1004.7
2023-03-21T15:02:49.662Z,1004.7
2023-03-21T15:04:05.902Z,1004.7
2023-03-21T15:05:21.000Z,1004.6
2023-03-21T15:06:38.000Z,1004.7
2023-03-21T15:07:54.000Z,1004.7
2023-03-21T15:09:10.862Z,1004.7
2023-03-21T15:10:26.000Z,1004.7
2023-03-21T15:11:42.327Z,1004.8
2023-03-21T15:12:57.000Z,1004.8
2023-03-21T15:14:13.000Z,1004.8
2023-03-21T15:15:29.000Z,1004.7
2023-03-21T15:16:45.000Z,1004.8
2023-03-21T15:18:00.561Z,1004.7
2023-03-21T15:19:16.792Z,1004.7
2023-03-21T15:20:33.027Z,1004.6
2023-03-21T15:21:49.000Z,1004.7
2023-03-21T15:23:05.000Z,1004.6
2023-03-21T15:24:21.000Z,1004.6
2023-03-21T15:25:37.000Z,1004.6
2023-03-21T15:26:53.000Z,1004.6
2023-03-21T15:28:10.000Z,1004.7
2023-03-21T15:29:26.000Z,1004.7
2023-03-21T15:31:58.000Z,1004.6
2023-03-21T15:33:15.000Z,1004.6
2023-03-21T15:34:30.000Z,1004.6
2023-03-21T15:35:46.000Z,1004.5
2023-03-21T15:37:02.000Z,1004.5
2023-03-21T15:38:19.000Z,1004.4
2023-03-21T15:39:35.000Z,1004.4
2023-03-21T15:40:51.000Z,1004.4
2023-03-21T15:42:07.000Z,1004.4
2023-03-21T15:43:23.000Z,1004.4
2023-03-21T15:44:39.000Z,1004.3
2023-03-21T15:45:55.000Z,1004.3
2023-03-21T15:47:10.000Z,1004.4
2023-03-21T15:48:26.000Z,1004.3
2023-03-21T15:49:43.430Z,1004.4
2023-03-21T15:50:58.000Z,1004.3
2023-03-21T15:52:13.000Z,1004.2
2023-03-21T15:53:29.000Z,1004.2
2023-03-21T15:54:46.000Z,1004.3
2023-03-21T15:57:18.000Z,1004.3
2023-03-21T15:58:35.129Z,1004.3
2023-03-21T15:59:51.000Z,1004.3
2023-03-21T16:01:07.000Z,1004.3
2023-03-21T16:02:23.000Z,1004.3
2023-03-21T16:03:39.000Z,1004.4
2023-03-21T16:04:56.000Z,1004.3
2023-03-21T16:06:12.000Z,1004.3
2023-03-21T16:07:28.000Z,1004.3
2023-03-21T16:08:43.992Z,1004.4
2023-03-21T16:09:59.000Z,1004.3
2023-03-21T16:11:16.000Z,1004.3
2023-03-21T16:12:32.693Z,1004.4
2023-03-21T16:13:48.000Z,1004.3
2023-03-21T16:15:05.177Z,1004.3
2023-03-21T16:16:21.000Z,1004.3